sensor_id;sensor_type;location;lat;lon;timestamp;pressure;altitude;pressure_sealevel;temperature;humidity
22580;BME280;11456;47.030;15.396;2023-04-07T00:02:15;97439.50;;;1.91;56.59
22580;BME280;11456;47.030;15.396;2023-04-07T00:04:42;97436.72;;;1.93;56.47
22580;BME280;11456;47.030;15.396;2023-04-07T00:07:08;97436.28;;;1.86;56.57
22580;BME280;11456;47.030;15.396;2023-04-07T00:09:35;97433.19;;;1.80;57.14
22580;BME280;11456;47.030;15.396;2023-04-07T00:12:02;97440.44;;;1.78;57.48
22580;BME280;11456;47.030;15.396;2023-04-07T00:14:28;97438.75;;;1.77;57.31
22580;BME280;11456;47.030;15.396;2023-04-07T00:16:55;97438.47;;;1.54;57.82
22580;BME280;11456;47.030;15.396;2023-04-07T00:19:22;97439.56;;;1.65;58.01
22580;BME280;11456;47.030;15.396;2023-04-07T00:21:48;97442.22;;;1.65;57.60
22580;BME280;11456;47.030;15.396;2023-04-07T00:24:15;97443.41;;;1.34;59.06
22580;BME280;11456;47.030;15.396;2023-04-07T00:26:58;97433.56;;;1.48;58.48
22580;BME280;11456;47.030;15.396;2023-04-07T00:29:26;97431.38;;;1.68;57.93
22580;BME280;11456;47.030;15.396;2023-04-07T00:31:52;97429.56;;;1.55;58.46
22580;BME280;11456;47.030;15.396;2023-04-07T00:34:19;97426.34;;;1.50;58.73
22580;BME280;11456;47.030;15.396;2023-04-07T00:36:45;97426.16;;;1.53;58.56
22580;BME280;11456;47.030;15.396;2023-04-07T00:39:17;97428.91;;;1.52;58.32
22580;BME280;11456;47.030;15.396;2023-04-07T00:41:45;97421.13;;;1.36;59.12
22580;BME280;11456;47.030;15.396;2023-04-07T00:44:12;97423.91;;;1.47;58.92
22580;BME280;11456;47.030;15.396;2023-04-07T00:46:40;97424.03;;;1.46;58.76
22580;BME280;11456;47.030;15.396;2023-04-07T00:49:06;97421.25;;;1.47;58.73
22580;BME280;11456;47.030;15.396;2023-04-07T00:51:36;97415.91;;;1.35;59.09
22580;BME280;11456;47.030;15.396;2023-04-07T00:54:03;97420.75;;;1.28;60.14
22580;BME280;11456;47.030;15.396;2023-04-07T00:56:29;97424.25;;;1.29;59.86
22580;BME280;11456;47.030;15.396;2023-04-07T00:58:56;97416.31;;;1.29;59.26
22580;BME280;11456;47.030;15.396;2023-04-07T01:01:29;97407.13;;;1.34;59.46
22580;BME280;11456;47.030;15.396;2023-04-07T01:03:58;97415.22;;;1.18;60.00
22580;BME280;11456;47.030;15.396;2023-04-07T01:06:28;97411.94;;;1.15;60.05
22580;BME280;11456;47.030;15.396;2023-04-07T01:11:31;97406.97;;;1.23;59.29
22580;BME280;11456;47.030;15.396;2023-04-07T01:14:02;97408.78;;;0.96;60.95
22580;BME280;11456;47.030;15.396;2023-04-07T01:16:49;97418.19;;;1.14;60.17
22580;BME280;11456;47.030;15.396;2023-04-07T01:19:31;97407.72;;;0.98;60.58
22580;BME280;11456;47.030;15.396;2023-04-07T01:21:59;97399.84;;;0.97;61.06
22580;BME280;11456;47.030;15.396;2023-04-07T01:26:56;97401.81;;;0.80;61.36
22580;BME280;11456;47.030;15.396;2023-04-07T01:29:33;97395.91;;;0.90;61.29
22580;BME280;11456;47.030;15.396;2023-04-07T01:32:01;97400.78;;;1.23;60.45
22580;BME280;11456;47.030;15.396;2023-04-07T01:34:29;97395.44;;;1.10;60.37
22580;BME280;11456;47.030;15.396;2023-04-07T01:36:57;97392.97;;;1.21;59.85
22580;BME280;11456;47.030;15.396;2023-04-07T01:39:25;97398.00;;;1.11;60.24
22580;BME280;11456;47.030;15.396;2023-04-07T01:41:52;97398.47;;;1.18;59.67
22580;BME280;11456;47.030;15.396;2023-04-07T01:44:19;97398.06;;;1.24;59.87
22580;BME280;11456;47.030;15.396;2023-04-07T01:46:46;97403.13;;;0.88;61.45
22580;BME280;11456;47.030;15.396;2023-04-07T01:49:13;97402.34;;;0.86;61.71
22580;BME280;11456;47.030;15.396;2023-04-07T01:51:41;97395.75;;;0.78;61.49
22580;BME280;11456;47.030;15.396;2023-04-07T01:54:08;97388.72;;;0.77;61.96
22580;BME280;11456;47.030;15.396;2023-04-07T01:56:35;97390.50;;;0.91;61.61
22580;BME280;11456;47.030;15.396;2023-04-07T01:59:04;97388.00;;;0.75;62.20
22580;BME280;11456;47.030;15.396;2023-04-07T02:01:31;97387.06;;;0.76;62.75
22580;BME280;11456;47.030;15.396;2023-04-07T02:04:01;97391.38;;;1.31;59.93
22580;BME280;11456;47.030;15.396;2023-04-07T02:06:31;97381.59;;;1.19;60.45
22580;BME280;11456;47.030;15.396;2023-04-07T02:09:01;97386.56;;;1.11;60.63
22580;BME280;11456;47.030;15.396;2023-04-07T02:11:29;97389.91;;;1.00;60.87
22580;BME280;11456;47.030;15.396;2023-04-07T02:14:01;97385.28;;;0.90;62.07
22580;BME280;11456;47.030;15.396;2023-04-07T02:16:33;97381.09;;;0.73;62.92
22580;BME280;11456;47.030;15.396;2023-04-07T02:19:01;97387.41;;;0.85;62.49
22580;BME280;11456;47.030;15.396;2023-04-07T02:21:28;97382.81;;;1.01;62.11
22580;BME280;11456;47.030;15.396;2023-04-07T02:23:55;97387.31;;;0.86;62.12
22580;BME280;11456;47.030;15.396;2023-04-07T02:26:25;97388.06;;;1.15;61.62
22580;BME280;11456;47.030;15.396;2023-04-07T02:28:53;97397.09;;;0.98;62.02
22580;BME280;11456;47.030;15.396;2023-04-07T02:31:20;97388.50;;;0.95;62.35
22580;BME280;11456;47.030;15.396;2023-04-07T02:33:47;97384.66;;;1.13;61.81
22580;BME280;11456;47.030;15.396;2023-04-07T02:36:13;97385.72;;;1.23;61.73
22580;BME280;11456;47.030;15.396;2023-04-07T02:38:40;97388.44;;;1.09;62.08
22580;BME280;11456;47.030;15.396;2023-04-07T02:41:07;97385.25;;;1.04;62.00
22580;BME280;11456;47.030;15.396;2023-04-07T02:43:33;97388.13;;;1.01;61.98
22580;BME280;11456;47.030;15.396;2023-04-07T02:46:00;97391.97;;;0.83;62.98
22580;BME280;11456;47.030;15.396;2023-04-07T02:48:28;97385.78;;;1.09;62.93
22580;BME280;11456;47.030;15.396;2023-04-07T02:50:55;97381.47;;;1.08;62.33
22580;BME280;11456;47.030;15.396;2023-04-07T02:53:21;97376.38;;;1.17;61.56
22580;BME280;11456;47.030;15.396;2023-04-07T02:55:48;97379.13;;;1.16;61.69
22580;BME280;11456;47.030;15.396;2023-04-07T02:58:14;97373.59;;;1.06;62.85
22580;BME280;11456;47.030;15.396;2023-04-07T03:00:43;97375.34;;;0.93;63.27
22580;BME280;11456;47.030;15.396;2023-04-07T03:03:13;97372.78;;;0.92;63.93
22580;BME280;11456;47.030;15.396;2023-04-07T03:05:53;97368.47;;;1.03;63.60
22580;BME280;11456;47.030;15.396;2023-04-07T03:08:20;97365.75;;;1.05;63.48
22580;BME280;11456;47.030;15.396;2023-04-07T03:10:47;97362.94;;;0.94;64.08
22580;BME280;11456;47.030;15.396;2023-04-07T03:13:17;97369.81;;;1.23;63.53
22580;BME280;11456;47.030;15.396;2023-04-07T03:15:45;97364.38;;;1.12;63.80
22580;BME280;11456;47.030;15.396;2023-04-07T03:18:14;97362.69;;;1.11;63.90
22580;BME280;11456;47.030;15.396;2023-04-07T03:20:42;97356.72;;;1.34;63.18
22580;BME280;11456;47.030;15.396;2023-04-07T03:23:10;97364.09;;;1.29;63.19
22580;BME280;11456;47.030;15.396;2023-04-07T03:25:37;97357.03;;;1.42;62.91
22580;BME280;11456;47.030;15.396;2023-04-07T03:28:04;97346.94;;;1.47;62.66
22580;BME280;11456;47.030;15.396;2023-04-07T03:30:34;97345.28;;;1.46;62.31
22580;BME280;11456;47.030;15.396;2023-04-07T03:33:01;97342.31;;;1.64;61.91
22580;BME280;11456;47.030;15.396;2023-04-07T03:35:29;97344.09;;;1.50;62.87
22580;BME280;11456;47.030;15.396;2023-04-07T03:37:55;97338.44;;;1.42;63.08
22580;BME280;11456;47.030;15.396;2023-04-07T03:40:22;97331.69;;;1.64;62.87
22580;BME280;11456;47.030;15.396;2023-04-07T03:42:48;97334.44;;;1.49;63.19
22580;BME280;11456;47.030;15.396;2023-04-07T03:45:15;97336.88;;;1.52;63.28
22580;BME280;11456;47.030;15.396;2023-04-07T03:47:46;97333.97;;;1.30;64.11
22580;BME280;11456;47.030;15.396;2023-04-07T03:50:14;97336.56;;;1.44;64.22
22580;BME280;11456;47.030;15.396;2023-04-07T03:52:58;97337.19;;;1.60;63.82
22580;BME280;11456;47.030;15.396;2023-04-07T03:55:28;97333.41;;;1.65;63.11
22580;BME280;11456;47.030;15.396;2023-04-07T03:58:00;97336.78;;;1.79;62.09
22580;BME280;11456;47.030;15.396;2023-04-07T04:00:30;97332.31;;;1.54;62.63
22580;BME280;11456;47.030;15.396;2023-04-07T04:03:06;97342.09;;;1.67;62.76
22580;BME280;11456;47.030;15.396;2023-04-07T04:05:36;97341.47;;;1.88;62.16
22580;BME280;11456;47.030;15.396;2023-04-07T04:08:03;97344.22;;;1.87;62.52
22580;BME280;11456;47.030;15.396;2023-04-07T04:10:32;97343.78;;;1.68;62.77
22580;BME280;11456;47.030;15.396;2023-04-07T04:12:59;97344.44;;;1.84;62.05
22580;BME280;11456;47.030;15.396;2023-04-07T04:15:26;97343.59;;;1.71;62.72
22580;BME280;11456;47.030;15.396;2023-04-07T04:17:53;97343.91;;;2.04;62.35
22580;BME280;11456;47.030;15.396;2023-04-07T04:20:19;97346.41;;;2.18;62.00
22580;BME280;11456;47.030;15.396;2023-04-07T04:22:49;97355.91;;;2.22;60.83
22580;BME280;11456;47.030;15.396;2023-04-07T04:25:16;97351.88;;;2.04;62.37
22580;BME280;11456;47.030;15.396;2023-04-07T04:27:47;97348.47;;;1.77;63.26
22580;BME280;11456;47.030;15.396;2023-04-07T04:30:20;97347.81;;;1.86;63.30
22580;BME280;11456;47.030;15.396;2023-04-07T04:32:53;97357.81;;;1.95;63.35
22580;BME280;11456;47.030;15.396;2023-04-07T04:35:27;97352.41;;;1.84;63.57
22580;BME280;11456;47.030;15.396;2023-04-07T04:38:04;97350.81;;;1.94;62.76
22580;BME280;11456;47.030;15.396;2023-04-07T04:40:31;97355.25;;;2.06;62.60
22580;BME280;11456;47.030;15.396;2023-04-07T04:42:58;97351.88;;;2.17;62.04
22580;BME280;11456;47.030;15.396;2023-04-07T04:45:25;97353.97;;;1.86;63.79
22580;BME280;11456;47.030;15.396;2023-04-07T04:47:52;97355.38;;;2.17;62.76
22580;BME280;11456;47.030;15.396;2023-04-07T04:50:19;97356.31;;;2.16;62.10
22580;BME280;11456;47.030;15.396;2023-04-07T04:52:48;97349.31;;;2.15;62.91
22580;BME280;11456;47.030;15.396;2023-04-07T04:55:18;97349.31;;;2.15;62.80
22580;BME280;11456;47.030;15.396;2023-04-07T04:57:45;97349.53;;;1.99;63.57
22580;BME280;11456;47.030;15.396;2023-04-07T05:00:17;97354.63;;;2.15;63.02
22580;BME280;11456;47.030;15.396;2023-04-07T05:02:46;97351.00;;;2.16;62.60
22580;BME280;11456;47.030;15.396;2023-04-07T05:05:14;97349.94;;;2.06;62.55
22580;BME280;11456;47.030;15.396;2023-04-07T05:07:42;97345.72;;;2.04;63.46
22580;BME280;11456;47.030;15.396;2023-04-07T05:10:11;97353.56;;;2.30;63.11
22580;BME280;11456;47.030;15.396;2023-04-07T05:12:44;97354.59;;;2.40;63.54
22580;BME280;11456;47.030;15.396;2023-04-07T05:15:11;97356.69;;;3.08;59.53
22580;BME280;11456;47.030;15.396;2023-04-07T05:17:38;97356.34;;;2.53;60.93
22580;BME280;11456;47.030;15.396;2023-04-07T05:20:08;97365.41;;;2.37;61.25
22580;BME280;11456;47.030;15.396;2023-04-07T05:22:37;97372.97;;;2.31;62.47
22580;BME280;11456;47.030;15.396;2023-04-07T05:25:06;97365.00;;;2.31;62.88
22580;BME280;11456;47.030;15.396;2023-04-07T05:27:33;97355.81;;;2.60;62.78
22580;BME280;11456;47.030;15.396;2023-04-07T05:30:05;97362.19;;;2.58;63.84
22580;BME280;11456;47.030;15.396;2023-04-07T05:32:33;97360.69;;;2.66;63.69
22580;BME280;11456;47.030;15.396;2023-04-07T05:35:06;97361.91;;;2.86;64.07
22580;BME280;11456;47.030;15.396;2023-04-07T05:37:36;97364.75;;;2.83;63.15
22580;BME280;11456;47.030;15.396;2023-04-07T05:40:05;97364.31;;;2.89;61.65
22580;BME280;11456;47.030;15.396;2023-04-07T05:42:31;97369.47;;;3.03;61.43
22580;BME280;11456;47.030;15.396;2023-04-07T05:44:58;97372.94;;;2.93;61.24
22580;BME280;11456;47.030;15.396;2023-04-07T05:47:26;97365.94;;;3.27;61.66
22580;BME280;11456;47.030;15.396;2023-04-07T05:49:53;97364.53;;;3.57;59.82
22580;BME280;11456;47.030;15.396;2023-04-07T05:52:19;97371.22;;;3.74;59.24
22580;BME280;11456;47.030;15.396;2023-04-07T05:54:52;97360.81;;;3.71;57.50
22580;BME280;11456;47.030;15.396;2023-04-07T05:57:21;97368.41;;;3.65;58.18
22580;BME280;11456;47.030;15.396;2023-04-07T05:59:49;97367.94;;;3.71;58.11
22580;BME280;11456;47.030;15.396;2023-04-07T06:02:16;97366.16;;;3.93;57.03
22580;BME280;11456;47.030;15.396;2023-04-07T06:04:45;97353.97;;;4.24;56.05
22580;BME280;11456;47.030;15.396;2023-04-07T06:07:15;97362.34;;;4.20;56.29
22580;BME280;11456;47.030;15.396;2023-04-07T06:09:42;97362.44;;;4.07;55.39
22580;BME280;11456;47.030;15.396;2023-04-07T06:12:08;97361.38;;;4.10;56.46
22580;BME280;11456;47.030;15.396;2023-04-07T06:14:37;97350.09;;;4.51;54.95
22580;BME280;11456;47.030;15.396;2023-04-07T06:17:04;97359.28;;;4.58;54.31
22580;BME280;11456;47.030;15.396;2023-04-07T06:19:31;97355.53;;;5.14;52.92
22580;BME280;11456;47.030;15.396;2023-04-07T06:21:59;97352.19;;;5.01;52.12
22580;BME280;11456;47.030;15.396;2023-04-07T06:24:25;97358.16;;;5.57;51.98
22580;BME280;11456;47.030;15.396;2023-04-07T06:26:52;97358.03;;;6.21;49.73
22580;BME280;11456;47.030;15.396;2023-04-07T06:29:19;97358.53;;;6.06;48.92
22580;BME280;11456;47.030;15.396;2023-04-07T06:31:46;97356.97;;;5.82;50.19
22580;BME280;11456;47.030;15.396;2023-04-07T06:34:13;97350.22;;;6.29;49.28
22580;BME280;11456;47.030;15.396;2023-04-07T06:36:39;97351.81;;;6.11;50.44
22580;BME280;11456;47.030;15.396;2023-04-07T06:39:06;97349.75;;;5.94;50.03
22580;BME280;11456;47.030;15.396;2023-04-07T06:41:32;97350.59;;;6.46;48.77
22580;BME280;11456;47.030;15.396;2023-04-07T06:43:59;97343.44;;;6.96;47.82
22580;BME280;11456;47.030;15.396;2023-04-07T06:46:25;97351.66;;;7.33;45.74
22580;BME280;11456;47.030;15.396;2023-04-07T06:48:52;97342.00;;;8.17;44.94
22580;BME280;11456;47.030;15.396;2023-04-07T06:51:18;97340.88;;;8.19;44.59
22580;BME280;11456;47.030;15.396;2023-04-07T06:53:45;97341.69;;;8.20;44.28
22580;BME280;11456;47.030;15.396;2023-04-07T06:56:15;97347.81;;;8.59;43.55
22580;BME280;11456;47.030;15.396;2023-04-07T06:58:42;97343.50;;;8.29;44.02
22580;BME280;11456;47.030;15.396;2023-04-07T07:01:09;97342.00;;;9.18;42.90
22580;BME280;11456;47.030;15.396;2023-04-07T07:03:35;97342.19;;;9.52;42.15
22580;BME280;11456;47.030;15.396;2023-04-07T07:06:02;97345.25;;;9.57;42.13
22580;BME280;11456;47.030;15.396;2023-04-07T07:08:29;97343.59;;;9.11;41.79
22580;BME280;11456;47.030;15.396;2023-04-07T07:10:56;97337.44;;;9.01;41.18
22580;BME280;11456;47.030;15.396;2023-04-07T07:13:23;97339.78;;;9.66;40.70
22580;BME280;11456;47.030;15.396;2023-04-07T07:15:50;97340.41;;;9.60;40.97
22580;BME280;11456;47.030;15.396;2023-04-07T07:18:17;97345.09;;;9.58;40.07
22580;BME280;11456;47.030;15.396;2023-04-07T07:20:44;97340.50;;;10.12;38.22
22580;BME280;11456;47.030;15.396;2023-04-07T07:23:11;97337.47;;;10.59;38.88
22580;BME280;11456;47.030;15.396;2023-04-07T07:25:37;97336.31;;;11.03;37.23
22580;BME280;11456;47.030;15.396;2023-04-07T07:28:04;97336.34;;;9.92;39.06
22580;BME280;11456;47.030;15.396;2023-04-07T07:30:30;97336.13;;;10.55;38.00
22580;BME280;11456;47.030;15.396;2023-04-07T07:32:57;97335.19;;;11.22;36.85
22580;BME280;11456;47.030;15.396;2023-04-07T07:35:24;97336.81;;;10.65;38.01
22580;BME280;11456;47.030;15.396;2023-04-07T07:37:50;97341.19;;;10.32;39.99
22580;BME280;11456;47.030;15.396;2023-04-07T07:40:17;97332.13;;;11.91;36.89
22580;BME280;11456;47.030;15.396;2023-04-07T07:42:44;97334.91;;;11.25;38.96
22580;BME280;11456;47.030;15.396;2023-04-07T07:45:11;97340.47;;;11.32;38.32
22580;BME280;11456;47.030;15.396;2023-04-07T07:47:39;97335.19;;;11.96;37.44
22580;BME280;11456;47.030;15.396;2023-04-07T07:50:06;97336.19;;;11.87;36.36
22580;BME280;11456;47.030;15.396;2023-04-07T07:52:33;97327.56;;;12.24;37.03
22580;BME280;11456;47.030;15.396;2023-04-07T07:54:59;97323.38;;;12.22;36.63
22580;BME280;11456;47.030;15.396;2023-04-07T07:57:26;97319.66;;;12.15;35.80
22580;BME280;11456;47.030;15.396;2023-04-07T07:59:52;97320.31;;;12.25;35.25
22580;BME280;11456;47.030;15.396;2023-04-07T08:02:19;97308.06;;;12.61;34.43
22580;BME280;11456;47.030;15.396;2023-04-07T08:04:45;97320.84;;;13.53;34.16
22580;BME280;11456;47.030;15.396;2023-04-07T08:07:12;97322.63;;;12.60;31.85
22580;BME280;11456;47.030;15.396;2023-04-07T08:09:38;97318.59;;;13.88;32.06
22580;BME280;11456;47.030;15.396;2023-04-07T08:12:05;97311.59;;;13.71;30.67
22580;BME280;11456;47.030;15.396;2023-04-07T08:14:31;97317.97;;;13.78;32.09
22580;BME280;11456;47.030;15.396;2023-04-07T08:16:58;97309.53;;;13.27;30.28
22580;BME280;11456;47.030;15.396;2023-04-07T08:19:24;97312.94;;;13.75;28.72
22580;BME280;11456;47.030;15.396;2023-04-07T08:21:51;97318.53;;;13.50;28.97
22580;BME280;11456;47.030;15.396;2023-04-07T08:24:18;97311.31;;;13.65;27.12
22580;BME280;11456;47.030;15.396;2023-04-07T08:26:45;97302.69;;;13.85;27.50
22580;BME280;11456;47.030;15.396;2023-04-07T08:29:11;97303.19;;;13.65;27.27
22580;BME280;11456;47.030;15.396;2023-04-07T08:31:38;97288.91;;;14.32;25.99
22580;BME280;11456;47.030;15.396;2023-04-07T08:34:04;97298.97;;;14.90;24.54
22580;BME280;11456;47.030;15.396;2023-04-07T08:36:31;97288.88;;;14.55;26.73
22580;BME280;11456;47.030;15.396;2023-04-07T08:38:57;97294.25;;;15.13;25.45
22580;BME280;11456;47.030;15.396;2023-04-07T08:41:28;97292.22;;;15.15;24.91
22580;BME280;11456;47.030;15.396;2023-04-07T08:43:56;97284.03;;;14.65;25.67
22580;BME280;11456;47.030;15.396;2023-04-07T08:46:23;97285.00;;;13.97;26.61
22580;BME280;11456;47.030;15.396;2023-04-07T08:48:51;97288.81;;;14.25;25.81
22580;BME280;11456;47.030;15.396;2023-04-07T08:51:26;97278.06;;;13.80;26.76
22580;BME280;11456;47.030;15.396;2023-04-07T08:53:55;97279.63;;;14.64;25.92
22580;BME280;11456;47.030;15.396;2023-04-07T08:56:23;97279.00;;;13.87;26.60
22580;BME280;11456;47.030;15.396;2023-04-07T08:58:50;97277.81;;;13.67;26.15
22580;BME280;11456;47.030;15.396;2023-04-07T09:01:17;97262.41;;;13.67;26.44
22580;BME280;11456;47.030;15.396;2023-04-07T09:03:44;97268.78;;;14.49;26.04
22580;BME280;11456;47.030;15.396;2023-04-07T09:06:12;97269.47;;;14.66;26.38
22580;BME280;11456;47.030;15.396;2023-04-07T09:08:39;97274.84;;;13.99;26.10
22580;BME280;11456;47.030;15.396;2023-04-07T09:11:05;97268.31;;;13.71;26.70
22580;BME280;11456;47.030;15.396;2023-04-07T09:13:32;97273.38;;;13.74;27.21
22580;BME280;11456;47.030;15.396;2023-04-07T09:16:00;97269.16;;;13.48;27.24
22580;BME280;11456;47.030;15.396;2023-04-07T09:18:27;97264.72;;;12.94;26.92
22580;BME280;11456;47.030;15.396;2023-04-07T09:23:30;97274.81;;;13.61;25.50
22580;BME280;11456;47.030;15.396;2023-04-07T09:25:58;97264.34;;;14.33;26.18
22580;BME280;11456;47.030;15.396;2023-04-07T09:28:40;97267.88;;;14.19;24.22
22580;BME280;11456;47.030;15.396;2023-04-07T09:31:07;97264.59;;;15.27;24.51
22580;BME280;11456;47.030;15.396;2023-04-07T09:33:33;97263.00;;;14.52;23.95
22580;BME280;11456;47.030;15.396;2023-04-07T09:36:02;97258.31;;;14.75;22.54
22580;BME280;11456;47.030;15.396;2023-04-07T09:38:32;97260.63;;;14.93;22.33
22580;BME280;11456;47.030;15.396;2023-04-07T09:43:34;97258.97;;;14.63;23.43
22580;BME280;11456;47.030;15.396;2023-04-07T09:48:37;97248.72;;;14.06;23.20
22580;BME280;11456;47.030;15.396;2023-04-07T09:51:12;97247.53;;;14.23;24.03
22580;BME280;11456;47.030;15.396;2023-04-07T09:53:43;97252.66;;;13.81;23.48
22580;BME280;11456;47.030;15.396;2023-04-07T09:56:10;97243.88;;;14.16;24.24
22580;BME280;11456;47.030;15.396;2023-04-07T09:58:37;97242.91;;;14.47;23.46
22580;BME280;11456;47.030;15.396;2023-04-07T10:01:05;97249.47;;;14.52;23.12
22580;BME280;11456;47.030;15.396;2023-04-07T10:03:31;97240.75;;;14.42;23.43
22580;BME280;11456;47.030;15.396;2023-04-07T10:05:59;97235.59;;;14.62;22.56
22580;BME280;11456;47.030;15.396;2023-04-07T10:08:26;97243.38;;;15.15;23.09
22580;BME280;11456;47.030;15.396;2023-04-07T10:10:53;97233.31;;;16.43;22.21
22580;BME280;11456;47.030;15.396;2023-04-07T10:13:20;97228.28;;;16.13;22.11
22580;BME280;11456;47.030;15.396;2023-04-07T10:15:47;97228.38;;;16.26;21.42
22580;BME280;11456;47.030;15.396;2023-04-07T10:18:14;97226.41;;;16.75;20.82
22580;BME280;11456;47.030;15.396;2023-04-07T10:20:43;97217.31;;;17.03;19.80
22580;BME280;11456;47.030;15.396;2023-04-07T10:23:21;97222.19;;;16.38;21.58
22580;BME280;11456;47.030;15.396;2023-04-07T10:25:50;97210.84;;;17.91;20.85
22580;BME280;11456;47.030;15.396;2023-04-07T10:28:19;97209.16;;;18.29;20.05
22580;BME280;11456;47.030;15.396;2023-04-07T10:30:47;97214.16;;;17.80;19.47
22580;BME280;11456;47.030;15.396;2023-04-07T10:33:14;97213.28;;;17.53;20.11
22580;BME280;11456;47.030;15.396;2023-04-07T10:38:26;97215.34;;;17.44;20.55
22580;BME280;11456;47.030;15.396;2023-04-07T10:40:53;97199.41;;;17.21;20.52
22580;BME280;11456;47.030;15.396;2023-04-07T10:43:35;97196.97;;;16.51;22.21
22580;BME280;11456;47.030;15.396;2023-04-07T10:46:02;97188.78;;;18.25;19.80
22580;BME280;11456;47.030;15.396;2023-04-07T10:48:28;97187.56;;;18.99;19.08
22580;BME280;11456;47.030;15.396;2023-04-07T10:53:31;97179.50;;;19.86;17.99
22580;BME280;11456;47.030;15.396;2023-04-07T10:55:58;97187.88;;;19.22;18.36
22580;BME280;11456;47.030;15.396;2023-04-07T10:58:25;97184.84;;;19.37;16.82
22580;BME280;11456;47.030;15.396;2023-04-07T11:03:27;97177.00;;;18.44;18.61
22580;BME280;11456;47.030;15.396;2023-04-07T11:06:04;97179.78;;;19.02;18.25
22580;BME280;11456;47.030;15.396;2023-04-07T11:08:34;97169.38;;;20.12;17.58
22580;BME280;11456;47.030;15.396;2023-04-07T11:11:02;97165.38;;;20.57;16.81
22580;BME280;11456;47.030;15.396;2023-04-07T11:16:07;97162.72;;;21.05;16.32
22580;BME280;11456;47.030;15.396;2023-04-07T11:18:35;97161.38;;;20.78;16.68
22580;BME280;11456;47.030;15.396;2023-04-07T11:21:02;97151.22;;;20.42;17.18
22580;BME280;11456;47.030;15.396;2023-04-07T11:23:37;97148.34;;;20.12;17.41
22580;BME280;11456;47.030;15.396;2023-04-07T11:26:04;97150.16;;;19.75;17.34
22580;BME280;11456;47.030;15.396;2023-04-07T11:28:31;97149.53;;;19.73;16.78
22580;BME280;11456;47.030;15.396;2023-04-07T11:30:58;97158.25;;;19.64;16.94
22580;BME280;11456;47.030;15.396;2023-04-07T11:33:26;97149.94;;;19.52;17.93
22580;BME280;11456;47.030;15.396;2023-04-07T11:35:54;97154.75;;;18.67;18.23
22580;BME280;11456;47.030;15.396;2023-04-07T11:38:23;97143.13;;;19.61;17.93
22580;BME280;11456;47.030;15.396;2023-04-07T11:40:51;97146.34;;;19.13;18.48
22580;BME280;11456;47.030;15.396;2023-04-07T11:46:06;97143.03;;;19.74;18.13
22580;BME280;11456;47.030;15.396;2023-04-07T11:48:33;97146.78;;;19.10;18.23
22580;BME280;11456;47.030;15.396;2023-04-07T11:51:00;97134.75;;;19.56;17.94
22580;BME280;11456;47.030;15.396;2023-04-07T11:53:34;97139.81;;;19.52;18.21
22580;BME280;11456;47.030;15.396;2023-04-07T11:56:04;97132.09;;;19.74;18.35
22580;BME280;11456;47.030;15.396;2023-04-07T11:58:31;97120.84;;;20.68;17.77
22580;BME280;11456;47.030;15.396;2023-04-07T12:00:59;97126.94;;;20.70;17.11
22580;BME280;11456;47.030;15.396;2023-04-07T12:03:30;97120.06;;;21.16;17.34
22580;BME280;11456;47.030;15.396;2023-04-07T12:05:57;97125.88;;;20.53;16.67
22580;BME280;11456;47.030;15.396;2023-04-07T12:08:57;97121.25;;;20.54;17.65
22580;BME280;11456;47.030;15.396;2023-04-07T12:11:16;97114.69;;;19.93;18.48
22580;BME280;11456;47.030;15.396;2023-04-07T12:13:43;97121.88;;;20.31;17.01
22580;BME280;11456;47.030;15.396;2023-04-07T12:16:09;97121.47;;;20.34;17.08
22580;BME280;11456;47.030;15.396;2023-04-07T12:18:36;97123.78;;;19.87;17.39
22580;BME280;11456;47.030;15.396;2023-04-07T12:21:03;97107.56;;;21.02;16.87
22580;BME280;11456;47.030;15.396;2023-04-07T12:23:30;97102.47;;;21.88;16.42
22580;BME280;11456;47.030;15.396;2023-04-07T12:25:56;97106.03;;;21.24;16.83
22580;BME280;11456;47.030;15.396;2023-04-07T12:28:23;97102.94;;;21.85;15.84
22580;BME280;11456;47.030;15.396;2023-04-07T12:30:49;97092.31;;;21.66;15.92
22580;BME280;11456;47.030;15.396;2023-04-07T12:33:16;97099.25;;;20.42;16.53
22580;BME280;11456;47.030;15.396;2023-04-07T12:35:42;97097.91;;;21.17;17.21
22580;BME280;11456;47.030;15.396;2023-04-07T12:38:09;97106.31;;;19.88;16.66
22580;BME280;11456;47.030;15.396;2023-04-07T12:40:35;97099.03;;;20.44;17.48
22580;BME280;11456;47.030;15.396;2023-04-07T12:43:03;97099.72;;;20.57;17.79
22580;BME280;11456;47.030;15.396;2023-04-07T12:45:30;97099.88;;;20.44;16.88
22580;BME280;11456;47.030;15.396;2023-04-07T12:47:57;97103.75;;;19.12;19.67
22580;BME280;11456;47.030;15.396;2023-04-07T12:50:24;97104.34;;;19.14;18.01
22580;BME280;11456;47.030;15.396;2023-04-07T12:52:51;97104.63;;;20.30;17.60
22580;BME280;11456;47.030;15.396;2023-04-07T12:55:19;97088.91;;;20.08;17.65
22580;BME280;11456;47.030;15.396;2023-04-07T12:57:46;97085.09;;;20.09;16.64
22580;BME280;11456;47.030;15.396;2023-04-07T13:00:13;97096.16;;;21.05;17.41
22580;BME280;11456;47.030;15.396;2023-04-07T13:02:40;97083.91;;;20.77;17.25
22580;BME280;11456;47.030;15.396;2023-04-07T13:05:08;97088.66;;;20.34;17.43
22580;BME280;11456;47.030;15.396;2023-04-07T13:07:34;97089.28;;;20.84;16.24
22580;BME280;11456;47.030;15.396;2023-04-07T13:10:02;97083.66;;;19.32;17.65
22580;BME280;11456;47.030;15.396;2023-04-07T13:12:29;97090.75;;;19.39;17.20
22580;BME280;11456;47.030;15.396;2023-04-07T13:14:56;97088.28;;;18.62;17.21
22580;BME280;11456;47.030;15.396;2023-04-07T13:17:25;97082.34;;;18.71;18.15
22580;BME280;11456;47.030;15.396;2023-04-07T13:19:54;97077.09;;;19.39;17.48
22580;BME280;11456;47.030;15.396;2023-04-07T13:22:21;97088.75;;;18.90;17.49
22580;BME280;11456;47.030;15.396;2023-04-07T13:24:50;97084.28;;;18.96;17.25
22580;BME280;11456;47.030;15.396;2023-04-07T13:27:16;97072.16;;;19.54;17.01